Portada
METAR-TAF:

METAR-TAF

Aeroports :

Maurici, Maurici

latitud: 20-26S, longitud: 057-40E, altitud: 55 m

Observació

L'informe es va fer fa 37 minuts, a les 06:00 UTC
Vent 7 kt del Est/Sud-Est
Temperatura 24°C
Humitat 69%
Pressió 1020 hPa
Visibilitat 10 km o més
Núvols disperses a una alçada de 1800 ft

METAR: FIMP 200600Z 11007KT 9999 SCT018 24/18 Q1020

Hora: 10:37 (06:37 UTC)

Pronòstic

L'informe es va fer fa 1 hora i 22 minuts, a les 05:15 UTC
Pronòstic vàlid del 20 a les 06 UTC al 21 a les 12 UTC
Vent 5 kt del Est
Visibilitat 10 km o més
Núvols disperses a una alçada de 1700 ft

TAF: FIMP 200515Z 2006/2112 10005KT 9999 SCT017

Observacions i pronòstics meteorològics de més de 4000 aeroports (METAR i TAF).

Les estacions disponibles són els punts grocs i vermells al mapa.

Posi el ratolí al punt desitjat per veure el nom de l'estació.

Feu clic per veure les observacions i els pronòstics meteorològics.

Per canviar el mapa: feu clic els botons verds amb una creu de color negre per apropar; al botó verd amb un guió per allunyar la imatge; o en les fletxes verdes per a mapes adjacents.


METAR-TAF: